createdAt,value
2023-04-29T00:02:04.333Z,34.20
2023-04-29T00:05:07.747Z,31.10
2023-04-29T00:08:09.675Z,38.30
2023-04-29T00:14:13.545Z,40.70
2023-04-29T00:17:15.282Z,34.00
2023-04-29T00:20:17.045Z,40.90
2023-04-29T00:23:18.814Z,41.30
2023-04-29T00:29:22.158Z,33.10
2023-04-29T00:32:24.523Z,41.80
2023-04-29T00:35:26.165Z,39.50
2023-04-29T00:38:27.909Z,37.90
2023-04-29T00:44:31.755Z,33.60
2023-04-29T00:50:35.600Z,36.80
2023-04-29T00:53:38.092Z,32.40
2023-04-29T00:56:40.435Z,36.00
2023-04-29T00:59:42.206Z,33.10
2023-04-29T01:05:47.655Z,32.40
2023-04-29T01:09:21.889Z,33.40
2023-04-29T01:12:33.836Z,35.10
2023-04-29T01:16:11.847Z,38.10
2023-04-29T01:19:29.752Z,35.80
2023-04-29T01:22:31.457Z,33.10
2023-04-29T01:25:33.267Z,33.80
2023-04-29T01:28:49.402Z,34.00
2023-04-29T01:32:26.864Z,32.20
2023-04-29T01:35:53.499Z,29.70
2023-04-29T01:39:16.986Z,34.00
2023-04-29T01:42:24.790Z,34.20
2023-04-29T01:45:26.630Z,35.80
2023-04-29T01:48:28.358Z,30.90
2023-04-29T01:51:30.247Z,31.70
2023-04-29T01:54:32.152Z,31.20
2023-04-29T01:57:33.740Z,34.00
2023-04-29T02:03:39.350Z,29.30
2023-04-29T02:06:41.253Z,30.70
2023-04-29T02:12:44.516Z,31.80
2023-04-29T02:18:47.734Z,36.70
2023-04-29T02:21:49.319Z,32.80
2023-04-29T02:24:50.958Z,32.50
2023-04-29T02:30:54.107Z,30.70
2023-04-29T02:33:55.919Z,32.80
2023-04-29T02:39:59.106Z,30.50
2023-04-29T02:43:00.997Z,33.10
2023-04-29T02:46:02.761Z,30.40
2023-04-29T02:49:04.531Z,30.90
2023-04-29T02:55:08.282Z,28.90
2023-04-29T02:58:10.450Z,29.40
2023-04-29T03:01:12.162Z,29.50
2023-04-29T03:07:15.627Z,33.00
2023-04-29T03:13:18.789Z,30.80
2023-04-29T03:19:22.468Z,40.20
2023-04-29T03:22:24.174Z,35.50
2023-04-29T03:25:25.891Z,39.20
2023-04-29T03:31:29.185Z,34.30
2023-04-29T03:34:31.087Z,36.20
2023-04-29T03:40:34.367Z,31.10
2023-04-29T03:43:36.195Z,32.40
2023-04-29T03:46:37.960Z,34.30
2023-04-29T03:49:39.709Z,31.00
2023-04-29T03:55:43.025Z,31.30
2023-04-29T04:01:46.237Z,30.40
2023-04-29T04:10:51.452Z,29.00
2023-04-29T04:16:54.678Z,36.80
2023-04-29T04:22:57.881Z,32.30
2023-04-29T04:29:01.106Z,36.60
2023-04-29T04:32:02.879Z,36.80
2023-04-29T04:35:05.213Z,35.20
2023-04-29T04:38:06.876Z,40.10
2023-04-29T04:41:08.582Z,35.90
2023-04-29T04:44:11.023Z,39.20
2023-04-29T04:47:12.674Z,35.20
2023-04-29T04:53:15.825Z,29.50
2023-04-29T04:56:17.639Z,32.10
2023-04-29T04:59:19.212Z,30.80
2023-04-29T05:05:22.516Z,29.40
2023-04-29T05:08:24.799Z,34.00
2023-04-29T05:11:26.530Z,32.90
2023-04-29T05:14:28.212Z,37.20
2023-04-29T05:17:30.097Z,35.60
2023-04-29T05:20:31.704Z,31.90
2023-04-29T05:26:34.831Z,34.90
2023-04-29T05:32:38.110Z,29.80
2023-04-29T05:35:39.832Z,28.90
2023-04-29T05:38:41.447Z,28.10
2023-04-29T05:44:45.060Z,32.90
2023-04-29T05:47:47.356Z,29.40
2023-04-29T05:50:49.076Z,28.00
2023-04-29T05:53:50.792Z,28.70
2023-04-29T05:56:52.489Z,31.20
2023-04-29T05:59:54.376Z,27.50
2023-04-29T06:02:58.969Z,30.60
2023-04-29T06:06:01.453Z,26.80
2023-04-29T06:09:05.222Z,30.70
2023-04-29T06:12:10.746Z,29.80
2023-04-29T06:15:12.686Z,28.10
2023-04-29T06:18:14.384Z,28.70
2023-04-29T06:21:15.989Z,28.20
2023-04-29T06:24:17.687Z,29.50
2023-04-29T06:27:19.355Z,29.20
2023-04-29T06:30:21.315Z,25.80
2023-04-29T06:33:23.001Z,27.80
2023-04-29T06:36:24.659Z,29.50
2023-04-29T06:39:26.279Z,25.80
2023-04-29T06:42:28.120Z,27.30
2023-04-29T06:45:30.090Z,27.30
2023-04-29T06:48:31.703Z,26.50
2023-04-29T06:51:33.291Z,27.70
2023-04-29T06:54:38.074Z,26.70
2023-04-29T06:57:40.183Z,25.80
2023-04-29T07:00:45.296Z,27.40
2023-04-29T07:03:47.162Z,26.40
2023-04-29T07:06:49.199Z,24.40
2023-04-29T07:09:51.274Z,23.80
2023-04-29T07:12:53.486Z,25.40
2023-04-29T07:15:55.165Z,25.20
2023-04-29T07:18:56.952Z,27.30
2023-04-29T07:21:58.756Z,26.70
2023-04-29T07:25:00.518Z,22.50
2023-04-29T07:28:02.244Z,26.30
2023-04-29T07:31:03.992Z,25.80
2023-04-29T07:34:05.808Z,24.40
2023-04-29T07:37:07.633Z,25.30
2023-04-29T07:40:09.501Z,26.90
2023-04-29T07:43:11.085Z,24.40
2023-04-29T07:46:12.715Z,25.30
2023-04-29T07:49:14.424Z,24.90
2023-04-29T07:52:16.105Z,23.40
2023-04-29T07:55:17.787Z,22.50
2023-04-29T07:58:19.363Z,25.30
2023-04-29T08:01:21.004Z,23.10
2023-04-29T08:04:23.146Z,24.60
2023-04-29T08:07:25.001Z,22.80
2023-04-29T08:10:26.619Z,24.40
2023-04-29T08:13:28.271Z,22.30
2023-04-29T08:16:30.103Z,22.90
2023-04-29T08:19:31.768Z,21.90
2023-04-29T08:22:33.501Z,22.10
2023-04-29T08:25:35.141Z,20.60
2023-04-29T08:28:36.859Z,20.50
2023-04-29T08:31:38.510Z,17.50
2023-04-29T08:34:40.407Z,19.00
2023-04-29T08:37:42.058Z,19.70
2023-04-29T08:40:46.223Z,17.10
2023-04-29T08:43:47.821Z,20.40
2023-04-29T08:46:50.026Z,17.40
2023-04-29T08:49:51.777Z,19.50
2023-04-29T08:52:53.371Z,19.70
2023-04-29T08:55:55.918Z,18.70
2023-04-29T08:58:58.245Z,17.00
2023-04-29T09:02:00.485Z,17.80
2023-04-29T09:05:09.150Z,15.60
2023-04-29T09:08:11.901Z,15.60
2023-04-29T09:11:14.155Z,17.10
2023-04-29T09:14:16.236Z,13.20
2023-04-29T09:17:17.973Z,15.80
2023-04-29T09:20:22.674Z,15.70
2023-04-29T09:23:37.189Z,15.20
2023-04-29T09:26:43.174Z,15.60
2023-04-29T09:30:01.240Z,13.10
2023-04-29T09:33:05.122Z,16.20
2023-04-29T09:36:06.854Z,15.30
2023-04-29T09:39:09.647Z,15.60
2023-04-29T09:42:11.265Z,18.90
2023-04-29T09:45:12.921Z,18.10
2023-04-29T09:48:15.791Z,16.40
2023-04-29T09:51:17.432Z,15.40
2023-04-29T09:54:21.598Z,16.60
2023-04-29T09:57:40.026Z,19.30
2023-04-29T10:00:42.875Z,14.10
2023-04-29T10:03:45.946Z,17.10
2023-04-29T10:06:54.880Z,17.10
2023-04-29T10:09:56.819Z,16.30
2023-04-29T10:13:00.413Z,15.10
2023-04-29T10:16:14.902Z,19.50
2023-04-29T10:19:25.601Z,19.20
2023-04-29T10:25:31.602Z,14.50
2023-04-29T10:28:33.575Z,16.30
2023-04-29T10:31:35.614Z,16.70
2023-04-29T10:34:38.246Z,16.70
2023-04-29T10:37:43.957Z,18.20
2023-04-29T10:40:46.378Z,18.70
2023-04-29T10:43:48.043Z,15.40
2023-04-29T10:46:49.750Z,17.60
2023-04-29T10:50:04.613Z,20.90
2023-04-29T10:53:06.204Z,17.80
2023-04-29T10:56:09.826Z,17.30
2023-04-29T10:59:13.036Z,16.40
2023-04-29T11:02:14.648Z,18.90
2023-04-29T11:05:16.350Z,17.00
2023-04-29T11:08:21.446Z,18.40
2023-04-29T11:11:24.422Z,17.70
2023-04-29T11:14:35.763Z,20.10
2023-04-29T11:17:37.880Z,21.60
2023-04-29T11:21:05.761Z,16.70
2023-04-29T11:24:07.416Z,17.70
2023-04-29T11:27:09.340Z,17.30
2023-04-29T11:30:11.512Z,15.60
2023-04-29T11:33:13.609Z,17.90
2023-04-29T11:36:15.417Z,16.20
2023-04-29T11:39:17.112Z,19.60
2023-04-29T11:42:22.652Z,18.00
2023-04-29T11:45:24.297Z,16.70
2023-04-29T11:48:26.490Z,16.70
2023-04-29T11:51:28.114Z,17.40
2023-04-29T11:54:30.411Z,19.10
2023-04-29T11:57:32.116Z,20.30
2023-04-29T12:00:33.855Z,17.60
2023-04-29T12:03:35.800Z,18.10
2023-04-29T12:06:37.650Z,16.40
2023-04-29T12:09:45.988Z,19.40
2023-04-29T12:12:48.207Z,17.30
2023-04-29T12:15:50.712Z,20.10
2023-04-29T12:18:52.828Z,19.10
2023-04-29T12:21:54.388Z,19.90
2023-04-29T12:24:57.232Z,20.50
2023-04-29T12:28:02.461Z,19.00
2023-04-29T12:31:04.199Z,19.20
2023-04-29T12:34:08.259Z,19.10
2023-04-29T12:37:11.540Z,16.00
2023-04-29T12:40:17.256Z,15.40
2023-04-29T12:43:18.879Z,16.60
2023-04-29T12:46:21.197Z,17.40
2023-04-29T12:49:24.846Z,17.20
2023-04-29T12:52:26.468Z,19.40
2023-04-29T12:55:28.171Z,18.60
2023-04-29T12:58:30.677Z,18.00
2023-04-29T13:01:32.351Z,19.20
2023-04-29T13:04:34.148Z,16.80
2023-04-29T13:07:37.123Z,17.90
2023-04-29T13:10:38.919Z,17.80
2023-04-29T13:13:40.617Z,20.00
2023-04-29T13:16:42.290Z,20.00
2023-04-29T13:19:50.390Z,19.20
2023-04-29T13:22:53.256Z,19.30
2023-04-29T13:25:54.945Z,18.20
2023-04-29T13:28:56.568Z,18.50
2023-04-29T13:31:58.295Z,18.60
2023-04-29T13:35:00.044Z,19.50
2023-04-29T13:38:02.343Z,20.30
2023-04-29T13:41:05.572Z,15.80
2023-04-29T13:44:21.584Z,16.70
2023-04-29T13:47:31.725Z,18.60
2023-04-29T13:51:00.898Z,17.10
2023-04-29T14:00:15.180Z,18.80
2023-04-29T14:03:21.797Z,17.80
2023-04-29T14:06:23.604Z,19.70
2023-04-29T14:09:25.208Z,17.00
2023-04-29T14:12:26.808Z,16.90
2023-04-29T14:15:28.593Z,20.50
2023-04-29T14:18:30.336Z,13.80
2023-04-29T14:21:32.261Z,17.90
2023-04-29T14:24:33.852Z,15.60
2023-04-29T14:27:35.621Z,22.80
2023-04-29T14:30:37.262Z,18.40
2023-04-29T14:33:39.579Z,16.60
2023-04-29T14:36:41.489Z,19.20
2023-04-29T14:39:43.067Z,22.40
2023-04-29T14:42:44.759Z,19.90
2023-04-29T14:45:46.378Z,21.10
2023-04-29T14:48:48.079Z,22.10
2023-04-29T14:51:49.658Z,20.20
2023-04-29T14:54:51.541Z,19.60
2023-04-29T14:57:53.391Z,20.70
2023-04-29T15:00:55.251Z,22.40
2023-04-29T15:03:57.081Z,20.20
2023-04-29T15:06:58.795Z,26.20
2023-04-29T15:10:00.418Z,20.70
2023-04-29T15:13:02.416Z,21.30
2023-04-29T15:16:04.444Z,23.10
2023-04-29T15:19:06.109Z,26.70
2023-04-29T15:22:07.750Z,30.20
2023-04-29T15:25:09.617Z,24.40
2023-04-29T15:28:11.215Z,25.50
2023-04-29T15:31:13.180Z,33.70
2023-04-29T15:34:15.039Z,31.00
2023-04-29T15:37:16.630Z,28.20
2023-04-29T15:40:18.447Z,23.80
2023-04-29T15:43:20.028Z,24.00
2023-04-29T15:46:21.733Z,30.20
2023-04-29T15:49:24.651Z,34.60
2023-04-29T15:52:26.485Z,26.50
2023-04-29T15:55:28.213Z,25.30
2023-04-29T15:58:30.032Z,27.90
2023-04-29T16:01:31.983Z,49.50
2023-04-29T16:04:34.727Z,54.80
2023-04-29T16:07:36.875Z,41.60
2023-04-29T16:10:38.656Z,35.00
2023-04-29T16:13:40.486Z,30.70
2023-04-29T16:16:42.271Z,34.70
2023-04-29T16:19:43.955Z,35.60
2023-04-29T16:22:45.556Z,34.10
2023-04-29T16:25:47.151Z,29.70
2023-04-29T16:28:48.822Z,23.60
2023-04-29T16:31:50.711Z,24.50
2023-04-29T16:34:53.016Z,20.50
2023-04-29T16:37:55.107Z,22.20
2023-04-29T16:40:56.766Z,27.90
2023-04-29T16:43:58.593Z,28.60
2023-04-29T16:47:00.356Z,24.10
2023-04-29T16:50:02.000Z,20.30
2023-04-29T16:53:04.294Z,21.70
2023-04-29T16:56:05.985Z,20.90
2023-04-29T16:59:07.770Z,22.10
2023-04-29T17:02:09.451Z,24.70
2023-04-29T17:05:11.224Z,33.60
2023-04-29T17:08:12.908Z,31.00
2023-04-29T17:11:14.592Z,30.80
2023-04-29T17:14:16.355Z,26.20
2023-04-29T17:17:18.137Z,25.00
2023-04-29T17:20:20.150Z,26.40
2023-04-29T17:23:21.903Z,28.40
2023-04-29T17:26:23.544Z,28.00
2023-04-29T17:29:25.784Z,27.40
2023-04-29T17:32:27.638Z,26.70
2023-04-29T17:35:29.287Z,31.30
2023-04-29T17:38:31.874Z,25.90
2023-04-29T17:41:33.499Z,24.00
2023-04-29T17:44:35.102Z,24.90
2023-04-29T17:47:36.723Z,26.10
2023-04-29T17:50:38.490Z,25.50
2023-04-29T17:53:40.144Z,24.50
2023-04-29T17:56:41.818Z,30.10
2023-04-29T17:59:43.473Z,30.90
2023-04-29T18:02:45.411Z,31.70
2023-04-29T18:05:47.101Z,29.00
2023-04-29T18:08:49.106Z,27.30
2023-04-29T18:11:50.717Z,30.70
2023-04-29T18:14:52.546Z,29.00
2023-04-29T18:17:54.149Z,29.80
2023-04-29T18:20:55.813Z,31.00
2023-04-29T18:23:57.577Z,30.90
2023-04-29T18:26:59.201Z,31.00
2023-04-29T18:30:01.322Z,34.80
2023-04-29T18:33:03.226Z,41.60
2023-04-29T18:36:05.162Z,40.90
2023-04-29T18:39:06.841Z,35.40
2023-04-29T18:42:08.676Z,31.20
2023-04-29T18:45:10.788Z,33.60
2023-04-29T18:48:12.523Z,31.00
2023-04-29T18:51:14.428Z,30.70
2023-04-29T18:54:17.845Z,29.80
2023-04-29T18:57:19.491Z,29.10
2023-04-29T19:00:21.097Z,32.00
2023-04-29T19:03:22.778Z,35.20
2023-04-29T19:06:24.638Z,39.70
2023-04-29T19:09:27.091Z,37.20
2023-04-29T19:12:28.995Z,40.30
2023-04-29T19:15:30.717Z,44.60
2023-04-29T19:18:32.392Z,37.30
2023-04-29T19:21:34.156Z,48.10
2023-04-29T19:24:35.857Z,48.40
2023-04-29T19:27:37.580Z,61.40
2023-04-29T19:30:39.257Z,68.80
2023-04-29T19:33:41.327Z,67.90
2023-04-29T19:36:42.924Z,59.30
2023-04-29T19:39:44.511Z,58.20
2023-04-29T19:42:46.185Z,49.40
2023-04-29T19:45:48.025Z,41.80
2023-04-29T19:48:49.686Z,34.80
2023-04-29T19:51:51.438Z,34.40
2023-04-29T19:54:53.199Z,28.20
2023-04-29T19:57:54.869Z,25.00
2023-04-29T20:00:56.635Z,27.00
2023-04-29T20:03:58.344Z,30.60
2023-04-29T20:06:59.967Z,29.90
2023-04-29T20:10:01.606Z,30.80
2023-04-29T20:13:03.232Z,31.90
2023-04-29T20:16:05.118Z,35.10
2023-04-29T20:19:06.816Z,34.40
2023-04-29T20:22:08.420Z,35.70
2023-04-29T20:25:10.238Z,34.50
2023-04-29T20:28:12.271Z,34.70
2023-04-29T20:31:14.009Z,37.30
2023-04-29T20:34:15.862Z,37.50
2023-04-29T20:37:17.553Z,34.20
2023-04-29T20:40:19.622Z,40.40
2023-04-29T20:43:21.184Z,31.60
2023-04-29T20:46:25.288Z,31.90
2023-04-29T20:49:27.695Z,28.10
2023-04-29T20:52:29.384Z,26.60
2023-04-29T20:55:31.191Z,24.90
2023-04-29T20:58:32.841Z,27.90
2023-04-29T21:01:35.562Z,28.10
2023-04-29T21:04:40.411Z,27.20
2023-04-29T21:07:42.053Z,28.00
2023-04-29T21:10:43.739Z,24.90
2023-04-29T21:13:45.453Z,24.40
2023-04-29T21:16:47.109Z,23.20
2023-04-29T21:19:48.771Z,25.70
2023-04-29T21:22:50.526Z,25.40
2023-04-29T21:25:52.259Z,27.10
2023-04-29T21:28:53.976Z,26.40
2023-04-29T21:31:55.755Z,27.10
2023-04-29T21:34:57.781Z,27.20
2023-04-29T21:37:59.436Z,31.90
2023-04-29T21:41:01.374Z,26.50
2023-04-29T21:44:04.866Z,26.70
2023-04-29T21:47:07.167Z,25.90
2023-04-29T21:50:09.769Z,23.60
2023-04-29T21:53:14.405Z,24.20
2023-04-29T21:56:18.352Z,24.30
2023-04-29T21:59:19.997Z,26.70
2023-04-29T22:02:21.766Z,21.30
2023-04-29T22:05:23.672Z,22.00
2023-04-29T22:08:25.378Z,21.50
2023-04-29T22:11:27.060Z,21.40
2023-04-29T22:14:28.872Z,22.50
2023-04-29T22:17:30.501Z,22.80
2023-04-29T22:20:32.301Z,23.90
2023-04-29T22:23:34.084Z,26.10
2023-04-29T22:26:35.796Z,26.30
2023-04-29T22:29:37.393Z,25.70
2023-04-29T22:32:39.073Z,27.60
2023-04-29T22:35:40.751Z,29.40
2023-04-29T22:38:42.535Z,31.80
2023-04-29T22:41:44.235Z,32.10
2023-04-29T22:44:45.870Z,29.30
2023-04-29T22:47:47.560Z,28.20
2023-04-29T22:50:57.794Z,25.30
2023-04-29T22:53:59.484Z,28.00
2023-04-29T22:57:01.283Z,29.20
2023-04-29T23:00:02.961Z,33.00
2023-04-29T23:03:04.565Z,30.40
2023-04-29T23:06:06.414Z,33.20
2023-04-29T23:09:08.121Z,30.80
2023-04-29T23:12:09.712Z,30.30
2023-04-29T23:15:11.465Z,31.00
2023-04-29T23:18:13.429Z,32.80
2023-04-29T23:21:15.100Z,33.90
2023-04-29T23:24:17.857Z,32.80
2023-04-29T23:27:19.508Z,32.70
2023-04-29T23:30:21.660Z,36.00
2023-04-29T23:33:23.994Z,37.70
2023-04-29T23:36:25.713Z,35.00
2023-04-29T23:39:27.291Z,34.10
2023-04-29T23:42:28.968Z,36.50
2023-04-29T23:45:30.846Z,35.40
2023-04-29T23:48:32.539Z,37.40
2023-04-29T23:51:34.136Z,38.70
2023-04-29T23:54:36.038Z,37.40
2023-04-29T23:57:37.735Z,36.70
